Time;durP1;ratioP1;P1;durP2;ratioP2;P2;SDS_P1;SDS_P2;PMS_P1;PMS_P2;Temp;Humidity;BMP_temperature;BMP_pressure;BME280_temperature;BME280_humidity;BME280_pressure;Samples;Min_cycle;Max_cycle;Signal;HPM_P1;HPM_P2
2022/03/22 00:01:50;;;;;;;;;;;;;;;4.11;47.65;100800.69;5054553;28;19931;-61
2022/03/22 00:04:16;;;;;;;;;;;;;;;4.08;47.41;100796.56;5070625;28;19928;-61
2022/03/22 00:06:42;;;;;;;;;;;;;;;4.04;47.59;100790.00;5073232;28;19970;-60
2022/03/22 00:09:08;;;;;;;;;;;;;;;4.04;47.78;100791.81;5086707;28;19928;-63
2022/03/22 00:11:34;;;;;;;;;;;;;;;3.97;47.95;100794.25;5082496;28;19931;-61
2022/03/22 00:13:59;;;;;;;;;;;;;;;3.93;48.33;100795.53;5084892;28;20197;-61
2022/03/22 00:16:25;;;;;;;;;;;;;;;3.82;48.72;100790.59;5084495;28;20019;-62
2022/03/22 00:18:50;;;;;;;;;;;;;;;3.75;49.01;100793.03;5082423;28;19935;-62
2022/03/22 00:21:18;;;;;;;;;;;;;;;3.70;48.90;100784.00;5093523;28;19977;-60
2022/03/22 00:23:43;;;;;;;;;;;;;;;3.64;49.13;100786.25;5094701;28;19928;-62
2022/03/22 00:26:09;;;;;;;;;;;;;;;3.60;49.15;100789.38;5092902;28;19924;-62
2022/03/22 00:28:34;;;;;;;;;;;;;;;3.56;49.13;100780.16;5081263;28;19928;-62
2022/03/22 00:31:00;;;;;;;;;;;;;;;3.54;49.42;100784.75;5076695;28;19924;-63
2022/03/22 00:33:26;;;;;;;;;;;;;;;3.48;49.43;100780.97;5092971;28;19928;-63
2022/03/22 00:35:51;;;;;;;;;;;;;;;3.44;49.49;100778.78;5093603;28;19927;-64
2022/03/22 00:38:17;;;;;;;;;;;;;;;3.44;49.56;100776.19;5088196;28;19935;-63
2022/03/22 00:40:43;;;;;;;;;;;;;;;3.43;49.24;100780.59;5073702;28;19924;-62
2022/03/22 00:43:09;;;;;;;;;;;;;;;3.47;49.00;100778.47;5085519;28;19951;-63
2022/03/22 00:45:34;;;;;;;;;;;;;;;3.44;48.97;100779.59;5094081;28;20289;-62
2022/03/22 00:48:01;;;;;;;;;;;;;;;3.44;49.11;100771.75;5089149;28;19928;-63
2022/03/22 00:50:28;;;;;;;;;;;;;;;3.42;48.81;100774.53;5094008;28;20377;-63
2022/03/22 00:52:54;;;;;;;;;;;;;;;3.40;48.94;100773.06;5092526;28;19975;-63
2022/03/22 00:55:23;;;;;;;;;;;;;;;3.38;49.05;100765.34;5082417;28;19924;-64
2022/03/22 00:57:48;;;;;;;;;;;;;;;3.37;49.19;100766.31;5054373;28;20309;-62
2022/03/22 01:00:14;;;;;;;;;;;;;;;3.34;48.95;100766.63;5094078;28;20010;-62
2022/03/22 01:02:41;;;;;;;;;;;;;;;3.33;48.94;100770.25;5092444;28;19928;-62
2022/03/22 01:05:08;;;;;;;;;;;;;;;3.29;48.97;100774.13;5071930;28;19925;-62
2022/03/22 01:07:37;;;;;;;;;;;;;;;3.26;49.29;100765.75;5078868;28;19924;-61
2022/03/22 01:10:05;;;;;;;;;;;;;;;3.20;49.49;100761.97;5075200;28;19924;-63
2022/03/22 01:12:35;;;;;;;;;;;;;;;3.17;49.34;100768.34;5091293;28;20441;-61
2022/03/22 01:15:01;;;;;;;;;;;;;;;3.12;49.63;100760.13;5092161;28;19924;-63
2022/03/22 01:17:31;;;;;;;;;;;;;;;3.10;49.28;100756.84;5075821;28;19967;-62
2022/03/22 01:20:00;;;;;;;;;;;;;;;3.09;49.22;100770.09;5093274;28;20298;-63
2022/03/22 01:22:26;;;;;;;;;;;;;;;3.08;49.27;100765.84;5093520;28;19975;-63
2022/03/22 01:24:52;;;;;;;;;;;;;;;3.03;49.56;100752.38;5092089;28;19928;-61
2022/03/22 01:27:21;;;;;;;;;;;;;;;3.00;49.49;100755.28;5093587;28;19950;-62
2022/03/22 01:29:47;;;;;;;;;;;;;;;2.93;49.90;100765.56;5092137;28;19924;-64
2022/03/22 01:32:12;;;;;;;;;;;;;;;2.88;49.40;100759.97;5093439;28;19924;-63
2022/03/22 01:34:38;;;;;;;;;;;;;;;2.83;50.28;100752.59;5093431;28;20032;-64
2022/03/22 01:37:04;;;;;;;;;;;;;;;2.82;50.10;100752.72;5091619;28;19947;-64
2022/03/22 01:39:29;;;;;;;;;;;;;;;2.78;49.96;100749.59;5092692;28;19927;-63
2022/03/22 01:41:55;;;;;;;;;;;;;;;2.78;49.81;100752.22;5093056;28;19931;-63
2022/03/22 01:44:20;;;;;;;;;;;;;;;2.78;50.03;100746.97;5074151;28;19928;-63
2022/03/22 01:46:46;;;;;;;;;;;;;;;2.76;49.91;100751.53;5092828;28;19924;-63
2022/03/22 01:49:11;;;;;;;;;;;;;;;2.75;50.45;100743.84;5091410;28;19932;-65
2022/03/22 01:51:37;;;;;;;;;;;;;;;2.72;50.18;100739.75;5093033;28;20388;-62
2022/03/22 01:54:02;;;;;;;;;;;;;;;2.68;50.72;100741.03;5089026;28;19934;-63
2022/03/22 01:56:28;;;;;;;;;;;;;;;2.65;50.00;100736.91;5074704;28;19924;-63
2022/03/22 01:58:55;;;;;;;;;;;;;;;2.60;50.29;100723.47;5091472;28;19928;-64
2022/03/22 02:06:54;;;;;;;;;;;;;;;2.56;50.38;100737.84;5052359;28;19971;-63
2022/03/22 02:09:19;;;;;;;;;;;;;;;2.49;50.73;100734.97;5077306;28;20408;-63
2022/03/22 02:11:45;;;;;;;;;;;;;;;2.53;50.71;100732.06;5092767;28;19924;-63
2022/03/22 02:14:10;;;;;;;;;;;;;;;2.53;50.78;100726.81;5092737;28;19928;-63
2022/03/22 02:16:36;;;;;;;;;;;;;;;2.49;50.81;100727.13;5078228;28;19928;-62
2022/03/22 02:19:02;;;;;;;;;;;;;;;2.53;50.61;100713.75;5080934;28;19947;-62
2022/03/22 02:21:28;;;;;;;;;;;;;;;2.55;50.47;100714.41;5091379;28;20335;-63
2022/03/22 02:23:57;;;;;;;;;;;;;;;2.56;50.70;100719.50;5074053;28;20013;-64
2022/03/22 02:26:23;;;;;;;;;;;;;;;2.51;50.81;100716.53;5052264;28;20046;-61
2022/03/22 02:28:53;;;;;;;;;;;;;;;2.48;50.96;100711.59;5068315;28;20017;-62
2022/03/22 02:31:19;;;;;;;;;;;;;;;2.43;51.08;100706.00;5071122;28;19928;-62
2022/03/22 02:33:45;;;;;;;;;;;;;;;2.38;51.71;100706.47;5080067;28;19928;-62
2022/03/22 02:36:10;;;;;;;;;;;;;;;2.37;51.52;100707.41;5092242;28;19924;-62
2022/03/22 02:38:36;;;;;;;;;;;;;;;2.36;51.34;100703.16;5091577;28;19928;-62
2022/03/22 02:41:02;;;;;;;;;;;;;;;2.34;51.61;100712.94;5058681;28;20413;-61
2022/03/22 02:43:27;;;;;;;;;;;;;;;2.28;52.00;100708.31;5063571;28;20025;-62
2022/03/22 02:45:53;;;;;;;;;;;;;;;2.23;52.25;100700.91;5072193;28;19928;-63
2022/03/22 02:48:18;;;;;;;;;;;;;;;2.18;52.21;100700.56;5071433;28;19935;-61
2022/03/22 02:50:44;;;;;;;;;;;;;;;2.16;52.21;100704.31;5087137;28;19931;-63
2022/03/22 02:53:09;;;;;;;;;;;;;;;2.08;52.87;100706.84;5091624;28;19931;-64
2022/03/22 02:55:36;;;;;;;;;;;;;;;2.03;52.78;100707.31;5090818;28;19950;-64
2022/03/22 02:58:02;;;;;;;;;;;;;;;1.95;53.23;100705.41;5090378;28;20034;-64
2022/03/22 03:00:27;;;;;;;;;;;;;;;1.90;52.91;100705.03;5073798;28;19977;-63
2022/03/22 03:02:53;;;;;;;;;;;;;;;1.91;53.48;100709.31;5090295;28;19932;-62
2022/03/22 03:05:19;;;;;;;;;;;;;;;1.87;53.77;100713.19;5091743;28;20347;-63
2022/03/22 03:07:45;;;;;;;;;;;;;;;1.81;53.52;100708.53;5091912;28;19928;-64
2022/03/22 03:10:10;;;;;;;;;;;;;;;1.76;53.49;100713.38;5085432;28;19924;-65
2022/03/22 03:12:36;;;;;;;;;;;;;;;1.69;53.83;100702.72;5071642;28;19928;-62
2022/03/22 03:15:02;;;;;;;;;;;;;;;1.66;54.17;100697.78;5090448;28;19970;-63
2022/03/22 03:17:29;;;;;;;;;;;;;;;1.61;54.22;100704.41;5091585;28;19924;-64
2022/03/22 03:19:55;;;;;;;;;;;;;;;1.57;54.98;100706.50;5089533;28;20296;-64
2022/03/22 03:22:23;;;;;;;;;;;;;;;1.56;54.44;100704.88;5091851;28;19928;-65
2022/03/22 03:24:48;;;;;;;;;;;;;;;1.51;55.12;100705.28;5073168;28;19924;-64
2022/03/22 03:27:15;;;;;;;;;;;;;;;1.50;55.26;100702.81;5091689;28;19931;-64
2022/03/22 03:29:40;;;;;;;;;;;;;;;1.44;55.16;100704.25;5074739;28;20420;-63
2022/03/22 03:32:06;;;;;;;;;;;;;;;1.36;55.50;100702.34;5094187;28;19924;-64
2022/03/22 03:34:32;;;;;;;;;;;;;;;1.38;55.15;100704.78;5094102;28;20013;-63
2022/03/22 03:36:58;;;;;;;;;;;;;;;1.40;55.87;100713.31;5071572;28;20364;-65
2022/03/22 03:39:24;;;;;;;;;;;;;;;1.46;55.49;100715.34;5053915;28;19989;-63
2022/03/22 03:41:59;;;;;;;;;;;;;;;1.57;55.21;100717.75;5095178;28;19931;-63
2022/03/22 03:47:16;;;;;;;;;;;;;;;1.93;54.37;100711.75;5094458;28;19924;-62
2022/03/22 03:49:43;;;;;;;;;;;;;;;2.07;53.17;100711.25;5067802;28;19928;-62
2022/03/22 03:52:15;;;;;;;;;;;;;;;2.17;53.22;100700.69;5054866;28;19924;-64
2022/03/22 03:54:41;;;;;;;;;;;;;;;2.40;52.73;100707.09;5082763;28;20418;-64
2022/03/22 03:57:06;;;;;;;;;;;;;;;2.60;51.99;100706.94;5056767;28;19999;-63
2022/03/22 03:59:32;;;;;;;;;;;;;;;2.71;51.61;100699.66;5089823;28;19951;-63
2022/03/22 04:01:58;;;;;;;;;;;;;;;2.86;51.34;100696.47;5094647;28;19924;-65
2022/03/22 04:04:24;;;;;;;;;;;;;;;3.03;50.71;100694.72;5094375;28;20503;-63
2022/03/22 04:06:49;;;;;;;;;;;;;;;3.15;50.30;100691.72;5093613;28;19931;-63
2022/03/22 04:09:15;;;;;;;;;;;;;;;3.28;50.16;100693.88;5093537;28;19959;-62
2022/03/22 04:11:41;;;;;;;;;;;;;;;3.37;49.72;100689.50;5093826;28;20001;-64
2022/03/22 04:14:07;;;;;;;;;;;;;;;3.46;49.90;100692.97;5088260;28;20301;-62
2022/03/22 04:16:32;;;;;;;;;;;;;;;3.54;49.72;100690.38;5088692;28;19928;-61
2022/03/22 04:18:58;;;;;;;;;;;;;;;3.59;49.50;100690.72;5094861;28;19928;-63
2022/03/22 04:21:24;;;;;;;;;;;;;;;3.66;49.12;100688.28;5092890;28;19930;-62
2022/03/22 04:23:51;;;;;;;;;;;;;;;3.72;48.95;100685.81;5084073;28;19975;-62
2022/03/22 04:26:17;;;;;;;;;;;;;;;3.76;48.54;100681.06;5094412;28;19924;-65
2022/03/22 04:34:11;;;;;;;;;;;;;;;3.77;48.54;100678.31;5075822;28;19981;-62
2022/03/22 04:36:36;;;;;;;;;;;;;;;3.76;48.61;100678.44;5092890;28;20347;-61
2022/03/22 04:39:02;;;;;;;;;;;;;;;3.78;48.50;100677.31;5091445;28;19935;-62
2022/03/22 04:41:28;;;;;;;;;;;;;;;3.77;49.19;100678.31;5083156;28;19953;-61
2022/03/22 04:43:53;;;;;;;;;;;;;;;3.83;49.18;100674.22;5091105;28;20030;-60
2022/03/22 04:46:19;;;;;;;;;;;;;;;3.84;48.81;100667.97;5074609;28;20321;-61
2022/03/22 04:48:45;;;;;;;;;;;;;;;3.85;48.98;100680.94;5073553;28;19932;-59
2022/03/22 04:56:48;;;;;;;;;;;;;;;3.81;49.05;100676.16;5080525;28;19924;-58
2022/03/22 04:59:15;;;;;;;;;;;;;;;3.79;48.88;100678.94;5093937;28;19928;-63
2022/03/22 05:01:42;;;;;;;;;;;;;;;3.82;49.28;100685.66;5092781;28;19931;-61
2022/03/22 05:04:11;;;;;;;;;;;;;;;3.85;49.31;100677.47;5081776;28;19967;-63
2022/03/22 05:06:40;;;;;;;;;;;;;;;3.93;49.07;100681.91;5058500;28;20090;-61
2022/03/22 05:09:06;;;;;;;;;;;;;;;3.91;49.27;100681.25;5079722;28;20407;-61
2022/03/22 05:11:32;;;;;;;;;;;;;;;4.01;48.93;100679.31;5073105;28;20463;-62
2022/03/22 05:13:58;;;;;;;;;;;;;;;4.10;48.81;100683.59;5073428;28;19928;-61
2022/03/22 05:16:24;;;;;;;;;;;;;;;4.13;48.58;100683.25;5048565;28;19924;-59
2022/03/22 05:18:52;;;;;;;;;;;;;;;4.17;48.32;100675.88;5040723;28;19968;-60
2022/03/22 05:21:18;;;;;;;;;;;;;;;4.26;48.47;100683.56;5066780;28;20039;-59
2022/03/22 05:23:46;;;;;;;;;;;;;;;4.29;48.17;100679.78;5052892;28;20018;-60
2022/03/22 05:26:12;;;;;;;;;;;;;;;4.39;47.92;100693.59;5072921;28;20325;-61
2022/03/22 05:28:38;;;;;;;;;;;;;;;4.50;47.76;100695.03;5075654;28;20035;-61
2022/03/22 05:31:04;;;;;;;;;;;;;;;4.59;47.32;100691.44;5091427;28;20039;-61
2022/03/22 05:33:30;;;;;;;;;;;;;;;4.67;47.57;100698.47;5091039;28;20020;-61
2022/03/22 05:35:56;;;;;;;;;;;;;;;4.66;47.63;100689.78;5082031;28;20022;-61
2022/03/22 05:38:25;;;;;;;;;;;;;;;4.68;47.43;100693.06;5072768;28;19928;-61
2022/03/22 05:40:51;;;;;;;;;;;;;;;4.74;48.08;100689.78;5071226;28;20412;-60
2022/03/22 05:43:17;;;;;;;;;;;;;;;4.84;47.75;100689.56;5073125;28;19929;-62
2022/03/22 05:45:49;;;;;;;;;;;;;;;4.94;46.95;100678.88;5071268;28;19925;-61
2022/03/22 05:48:15;;;;;;;;;;;;;;;5.00;46.80;100671.16;5076670;28;20016;-62
2022/03/22 05:50:41;;;;;;;;;;;;;;;5.07;46.31;100666.03;5089111;28;19931;-61
2022/03/22 05:53:06;;;;;;;;;;;;;;;5.16;46.57;100675.53;5084188;28;19927;-61
2022/03/22 05:55:32;;;;;;;;;;;;;;;5.27;46.11;100668.25;5071533;28;19936;-62
2022/03/22 05:57:57;;;;;;;;;;;;;;;5.38;46.45;100663.44;5071754;28;20382;-61
2022/03/22 06:00:23;;;;;;;;;;;;;;;5.45;46.52;100660.94;5086204;28;19924;-59
2022/03/22 06:02:48;;;;;;;;;;;;;;;5.53;45.80;100660.91;5087965;28;20031;-60
2022/03/22 06:05:16;;;;;;;;;;;;;;;5.62;45.59;100659.03;5084476;28;19953;-60
2022/03/22 06:07:43;;;;;;;;;;;;;;;5.64;45.71;100664.94;5089319;28;19986;-59
2022/03/22 06:10:09;;;;;;;;;;;;;;;5.75;45.72;100658.47;5081892;28;19950;-62
2022/03/22 06:13:10;;;;;;;;;;;;;;;5.84;45.55;100662.66;5070907;28;20401;-60
2022/03/22 06:15:35;;;;;;;;;;;;;;;5.92;43.94;100668.69;5082011;28;19924;-60
2022/03/22 06:18:02;;;;;;;;;;;;;;;5.97;43.95;100668.22;5077434;28;19928;-60
2022/03/22 06:20:31;;;;;;;;;;;;;;;6.09;43.77;100658.91;5087349;28;19924;-60
2022/03/22 06:22:57;;;;;;;;;;;;;;;6.13;43.63;100662.00;5075738;28;19928;-62
2022/03/22 06:25:23;;;;;;;;;;;;;;;6.16;43.23;100664.28;5090713;28;19985;-61
2022/03/22 06:27:49;;;;;;;;;;;;;;;6.22;43.31;100666.19;5073352;28;20416;-61
2022/03/22 06:30:15;;;;;;;;;;;;;;;6.20;42.45;100670.00;5075666;28;19924;-62
2022/03/22 06:32:48;;;;;;;;;;;;;;;6.26;42.23;100677.19;5090570;28;20392;-62
2022/03/22 06:35:14;;;;;;;;;;;;;;;6.28;42.28;100672.56;5056349;28;20460;-61
2022/03/22 06:37:39;;;;;;;;;;;;;;;6.36;42.20;100670.69;5087096;28;19946;-60
2022/03/22 06:40:06;;;;;;;;;;;;;;;6.47;42.10;100665.97;5077144;28;20028;-59
2022/03/22 06:42:31;;;;;;;;;;;;;;;6.55;41.21;100660.63;5079049;28;19932;-60
2022/03/22 06:44:57;;;;;;;;;;;;;;;6.63;41.58;100655.28;5078349;28;20407;-60
2022/03/22 06:47:23;;;;;;;;;;;;;;;6.63;40.94;100657.91;5089203;28;19931;-60
2022/03/22 06:49:48;;;;;;;;;;;;;;;6.64;40.68;100654.28;5077700;28;19924;-60
2022/03/22 06:52:14;;;;;;;;;;;;;;;6.71;41.55;100655.22;5071092;28;19931;-64
2022/03/22 06:54:40;;;;;;;;;;;;;;;6.81;40.45;100653.09;5071089;28;20405;-62
2022/03/22 06:57:06;;;;;;;;;;;;;;;6.87;40.38;100648.94;5086626;28;20278;-60
2022/03/22 06:59:31;;;;;;;;;;;;;;;6.89;39.79;100657.47;5091812;28;20420;-59
2022/03/22 07:01:57;;;;;;;;;;;;;;;6.90;39.86;100653.84;5090612;28;20030;-59
2022/03/22 07:04:23;;;;;;;;;;;;;;;6.96;39.14;100652.28;5070972;28;19936;-60
2022/03/22 07:06:48;;;;;;;;;;;;;;;6.97;39.88;100644.22;5087162;28;20069;-60
2022/03/22 07:09:14;;;;;;;;;;;;;;;7.08;39.07;100639.47;5079852;28;19950;-61
2022/03/22 07:11:52;;;;;;;;;;;;;;;7.17;38.85;100641.00;5069759;28;19972;-61
2022/03/22 07:14:18;;;;;;;;;;;;;;;7.19;39.08;100633.72;5050317;28;19960;-60
2022/03/22 07:16:47;;;;;;;;;;;;;;;7.21;38.93;100637.00;5084146;28;20457;-60
2022/03/22 07:19:16;;;;;;;;;;;;;;;7.31;38.47;100634.88;5073586;28;19931;-60
2022/03/22 07:21:42;;;;;;;;;;;;;;;7.40;38.89;100630.31;5089476;28;19970;-60
2022/03/22 07:24:08;;;;;;;;;;;;;;;7.49;38.59;100634.47;5088539;28;19932;-60
2022/03/22 07:26:34;;;;;;;;;;;;;;;7.57;38.09;100641.47;5072718;28;20027;-60
2022/03/22 07:28:59;;;;;;;;;;;;;;;7.67;37.86;100640.13;5074768;28;20030;-62
2022/03/22 07:31:25;;;;;;;;;;;;;;;7.73;37.16;100641.19;5079048;28;19924;-61
2022/03/22 07:33:50;;;;;;;;;;;;;;;7.73;36.94;100642.03;5087555;28;20445;-61
2022/03/22 07:36:16;;;;;;;;;;;;;;;7.67;36.58;100636.69;5077135;28;20338;-59
2022/03/22 07:38:42;;;;;;;;;;;;;;;7.78;36.89;100627.47;5087921;28;20347;-60
2022/03/22 07:41:07;;;;;;;;;;;;;;;7.86;36.66;100635.25;5090767;28;19924;-59
2022/03/22 07:43:33;;;;;;;;;;;;;;;7.96;36.13;100633.91;5089136;28;20427;-60
2022/03/22 07:45:58;;;;;;;;;;;;;;;8.00;36.01;100638.81;5089541;28;20373;-58
2022/03/22 07:48:24;;;;;;;;;;;;;;;8.03;35.71;100639.28;5074656;28;19928;-59
2022/03/22 07:53:33;;;;;;;;;;;;;;;8.20;34.48;100637.97;5089823;28;20347;-58
2022/03/22 07:55:59;;;;;;;;;;;;;;;8.32;34.21;100642.75;5090297;28;19924;-61
2022/03/22 07:58:24;;;;;;;;;;;;;;;8.38;33.74;100639.31;5089273;28;19932;-60
2022/03/22 08:00:50;;;;;;;;;;;;;;;8.44;32.70;100629.84;5076617;28;19928;-60
2022/03/22 08:03:18;;;;;;;;;;;;;;;8.48;33.02;100634.56;5069419;28;19973;-64
2022/03/22 08:05:46;;;;;;;;;;;;;;;8.55;33.10;100630.13;5085823;28;19931;-60
2022/03/22 08:08:12;;;;;;;;;;;;;;;8.62;32.85;100625.72;5069970;28;19933;-60
2022/03/22 08:10:38;;;;;;;;;;;;;;;8.73;32.98;100605.84;5069028;28;19995;-61
2022/03/22 08:13:06;;;;;;;;;;;;;;;8.82;32.46;100607.34;5066817;28;19925;-62
2022/03/22 08:15:31;;;;;;;;;;;;;;;8.85;32.96;100606.94;5048930;28;19931;-63
2022/03/22 08:17:57;;;;;;;;;;;;;;;8.91;32.90;100607.97;5070727;28;19928;-63
2022/03/22 08:20:27;;;;;;;;;;;;;;;8.96;32.26;100596.81;5083474;28;20026;-63
2022/03/22 08:22:54;;;;;;;;;;;;;;;9.01;32.45;100608.44;5091379;28;19932;-62
2022/03/22 08:25:23;;;;;;;;;;;;;;;9.01;32.67;100607.63;5086238;28;20013;-62
2022/03/22 08:27:49;;;;;;;;;;;;;;;9.06;32.17;100603.38;5069768;28;19935;-63
2022/03/22 08:30:18;;;;;;;;;;;;;;;9.05;32.71;100598.25;5069995;28;20116;-62
2022/03/22 08:32:43;;;;;;;;;;;;;;;9.17;32.37;100598.50;5072091;28;19947;-60
2022/03/22 08:35:09;;;;;;;;;;;;;;;9.22;32.31;100593.44;5091370;28;19924;-61
2022/03/22 08:37:35;;;;;;;;;;;;;;;9.27;32.59;100578.59;5085569;28;19924;-61
2022/03/22 08:40:01;;;;;;;;;;;;;;;9.36;32.19;100583.72;5073303;28;19946;-62
2022/03/22 08:42:26;;;;;;;;;;;;;;;9.42;31.69;100585.56;5074042;28;20378;-61
2022/03/22 08:44:52;;;;;;;;;;;;;;;9.43;30.94;100571.31;5089863;28;19928;-61
2022/03/22 08:47:17;;;;;;;;;;;;;;;9.43;31.04;100574.75;5091763;28;20301;-73
2022/03/22 08:49:43;;;;;;;;;;;;;;;9.50;30.39;100570.31;5074903;28;19930;-63
2022/03/22 08:52:10;;;;;;;;;;;;;;;9.50;30.33;100574.78;5083416;28;20010;-66
2022/03/22 08:54:35;;;;;;;;;;;;;;;9.55;30.44;100577.63;5071574;28;20354;-64
2022/03/22 08:57:01;;;;;;;;;;;;;;;9.58;30.06;100577.22;5083708;28;20026;-64
2022/03/22 08:59:26;;;;;;;;;;;;;;;9.64;29.43;100572.97;5085623;28;20285;-63
2022/03/22 09:01:52;;;;;;;;;;;;;;;9.61;29.90;100581.31;5091914;28;19934;-61
2022/03/22 09:07:02;;;;;;;;;;;;;;;9.75;29.77;100567.88;5077688;28;19967;-66
2022/03/22 09:09:29;;;;;;;;;;;;;;;9.75;30.09;100575.81;5090750;28;20478;-63
2022/03/22 09:11:54;;;;;;;;;;;;;;;9.76;29.76;100579.28;5090408;28;20043;-62
2022/03/22 09:14:20;;;;;;;;;;;;;;;9.75;29.68;100578.47;5089919;28;20026;-61
2022/03/22 09:16:45;;;;;;;;;;;;;;;9.74;29.38;100568.91;5087634;28;19932;-62
2022/03/22 09:19:11;;;;;;;;;;;;;;;9.82;29.13;100572.38;5083335;28;20129;-62
2022/03/22 09:21:36;;;;;;;;;;;;;;;9.83;28.92;100572.19;5076321;28;19924;-62
2022/03/22 09:24:05;;;;;;;;;;;;;;;9.88;28.47;100569.75;5088447;28;19932;-62
2022/03/22 09:26:31;;;;;;;;;;;;;;;9.91;25.31;100574.63;5080599;28;20297;-63
2022/03/22 09:28:57;;;;;;;;;;;;;;;9.90;23.92;100567.69;5067556;28;19935;-63
2022/03/22 09:31:24;;;;;;;;;;;;;;;9.93;25.10;100574.41;5069864;28;19928;-61
2022/03/22 09:33:50;;;;;;;;;;;;;;;9.96;25.13;100579.31;5067350;28;20355;-63
2022/03/22 09:36:16;;;;;;;;;;;;;;;9.99;25.87;100571.75;5068043;28;19928;-62
2022/03/22 09:38:41;;;;;;;;;;;;;;;10.01;24.17;100574.22;5087287;28;19939;-63
2022/03/22 09:41:11;;;;;;;;;;;;;;;9.97;24.14;100571.16;5075871;28;20329;-60
2022/03/22 09:43:47;;;;;;;;;;;;;;;9.98;24.38;100564.03;5044760;28;20389;-62
2022/03/22 09:46:14;;;;;;;;;;;;;;;10.03;26.04;100569.53;5088013;28;19991;-63
2022/03/22 09:48:39;;;;;;;;;;;;;;;10.08;25.53;100571.56;5082118;28;19935;-63
2022/03/22 09:53:50;;;;;;;;;;;;;;;10.02;25.35;100560.75;5069351;28;19935;-63
2022/03/22 09:56:16;;;;;;;;;;;;;;;10.05;25.55;100559.53;5067384;28;19931;-63
2022/03/22 09:58:41;;;;;;;;;;;;;;;10.01;25.23;100572.38;5082125;28;19932;-62
2022/03/22 10:01:07;;;;;;;;;;;;;;;10.00;24.91;100568.09;5082579;28;19930;-61
2022/03/22 10:03:32;;;;;;;;;;;;;;;10.04;26.04;100568.50;5083669;28;20473;-61
2022/03/22 10:05:59;;;;;;;;;;;;;;;10.02;25.83;100560.75;5068949;28;20415;-62
2022/03/22 10:08:25;;;;;;;;;;;;;;;10.00;26.35;100554.06;5080187;28;19927;-63
2022/03/22 10:11:01;;;;;;;;;;;;;;;10.01;26.47;100551.19;5087122;28;19931;-62
2022/03/22 10:13:28;;;;;;;;;;;;;;;10.05;26.35;100548.94;5085632;28;19935;-66
2022/03/22 10:16:05;;;;;;;;;;;;;;;10.05;26.79;100546.28;5091803;28;19916;-61
2022/03/22 10:18:35;;;;;;;;;;;;;;;10.02;26.19;100531.59;5047496;28;20023;-62
2022/03/22 10:21:03;;;;;;;;;;;;;;;10.00;25.09;100538.97;5089026;28;19924;-62
2022/03/22 10:23:32;;;;;;;;;;;;;;;10.01;26.01;100534.47;5057748;28;19929;-62
2022/03/22 10:26:01;;;;;;;;;;;;;;;9.99;25.24;100532.03;5045512;28;19925;-62
2022/03/22 10:28:27;;;;;;;;;;;;;;;10.02;26.37;100530.78;5046986;28;19928;-62
2022/03/22 10:30:56;;;;;;;;;;;;;;;10.03;24.80;100527.16;5065854;28;20446;-60
2022/03/22 10:33:21;;;;;;;;;;;;;;;10.08;26.00;100534.47;5066057;28;20487;-62
2022/03/22 10:35:47;;;;;;;;;;;;;;;10.08;26.11;100534.47;5065618;28;19924;-62
2022/03/22 10:38:15;;;;;;;;;;;;;;;10.08;26.03;100531.81;5066344;28;19929;-64
2022/03/22 10:40:41;;;;;;;;;;;;;;;10.01;27.21;100527.34;5064851;28;19928;-61
2022/03/22 10:43:10;;;;;;;;;;;;;;;10.05;27.18;100534.88;5083455;28;19928;-62
2022/03/22 10:45:43;;;;;;;;;;;;;;;9.99;26.60;100523.25;5087385;28;20516;-62
2022/03/22 10:48:08;;;;;;;;;;;;;;;9.96;25.68;100524.47;5084752;28;19955;-62
2022/03/22 10:50:37;;;;;;;;;;;;;;;9.99;25.66;100523.25;5086471;28;20388;-62
2022/03/22 10:53:03;;;;;;;;;;;;;;;10.01;25.55;100529.19;5085367;28;19928;-60
2022/03/22 10:55:29;;;;;;;;;;;;;;;9.98;26.18;100521.66;5085768;28;19924;-61
2022/03/22 10:57:56;;;;;;;;;;;;;;;9.98;25.67;100513.69;5088344;28;19928;-62
2022/03/22 11:00:22;;;;;;;;;;;;;;;10.01;26.27;100508.78;5087592;28;19924;-62
2022/03/22 11:02:49;;;;;;;;;;;;;;;10.06;26.12;100510.84;5087422;28;20304;-62
2022/03/22 11:05:15;;;;;;;;;;;;;;;10.07;25.32;100503.69;5086451;28;20108;-60
2022/03/22 11:07:41;;;;;;;;;;;;;;;10.06;26.16;100510.84;5086346;28;19950;-63
2022/03/22 11:10:07;;;;;;;;;;;;;;;10.09;25.94;100499.84;5089013;28;19924;-62
2022/03/22 11:12:35;;;;;;;;;;;;;;;10.07;25.80;100504.50;5088495;28;19928;-63
2022/03/22 11:15:01;;;;;;;;;;;;;;;10.08;25.69;100505.31;5087373;28;20018;-67
2022/03/22 11:17:30;;;;;;;;;;;;;;;10.08;25.49;100511.44;5067481;28;19931;-62
2022/03/22 11:19:55;;;;;;;;;;;;;;;10.10;26.27;100505.94;5089058;28;20414;-63
2022/03/22 11:22:22;;;;;;;;;;;;;;;10.11;26.41;100505.72;5079825;28;19924;-62
2022/03/22 11:24:48;;;;;;;;;;;;;;;10.15;26.80;100506.13;5066781;28;19924;-62
2022/03/22 11:27:13;;;;;;;;;;;;;;;10.16;26.18;100499.81;5067982;28;19920;-62
2022/03/22 11:29:39;;;;;;;;;;;;;;;10.16;25.47;100499.81;5050644;28;19928;-63
2022/03/22 11:34:51;;;;;;;;;;;;;;;10.21;25.49;100503.47;5071210;28;19915;-62
2022/03/22 11:37:33;;;;;;;;;;;;;;;10.22;26.49;100498.97;5068830;28;20835;-65
2022/03/22 11:42:56;;;;;;;;;;;;;;;10.19;25.41;100491.44;5067680;28;19929;-65
2022/03/22 11:45:22;;;;;;;;;;;;;;;10.18;24.84;100489.81;5067874;28;20543;-67
2022/03/22 11:47:54;;;;;;;;;;;;;;;10.17;25.83;100496.94;5068098;28;20007;-67
2022/03/22 11:50:23;;;;;;;;;;;;;;;10.17;25.75;100496.13;5034054;28;19948;-69
2022/03/22 11:52:50;;;;;;;;;;;;;;;10.18;25.76;100487.97;5050943;28;20436;-67
2022/03/22 11:55:17;;;;;;;;;;;;;;;10.18;26.14;100482.69;5069637;28;19931;-66
2022/03/22 11:57:48;;;;;;;;;;;;;;;10.20;26.21;100477.16;5069982;28;20408;-65
2022/03/22 12:00:15;;;;;;;;;;;;;;;10.22;26.27;100472.47;5072710;28;19928;-64
2022/03/22 12:02:51;;;;;;;;;;;;;;;10.20;25.18;100472.69;5071563;28;19928;-66
2022/03/22 12:05:17;;;;;;;;;;;;;;;10.18;25.60;100480.03;5070491;28;20227;-66
2022/03/22 12:07:43;;;;;;;;;;;;;;;10.21;25.90;100473.50;5074776;28;20020;-63
2022/03/22 12:10:12;;;;;;;;;;;;;;;10.25;26.18;100466.75;5072908;28;20313;-65
2022/03/22 12:12:39;;;;;;;;;;;;;;;10.26;25.48;100471.03;5072152;28;19928;-64
2022/03/22 12:15:08;;;;;;;;;;;;;;;10.24;25.64;100459.84;5034093;28;19964;-64
2022/03/22 12:17:34;;;;;;;;;;;;;;;10.24;25.35;100458.00;5071595;28;19924;-63
2022/03/22 12:20:00;;;;;;;;;;;;;;;10.25;25.78;100464.09;5071228;28;19924;-62
2022/03/22 12:22:26;;;;;;;;;;;;;;;10.21;26.19;100463.72;5065457;28;19924;-64
2022/03/22 12:24:53;;;;;;;;;;;;;;;10.24;25.85;100460.66;5050452;28;19936;-69
2022/03/22 12:27:19;;;;;;;;;;;;;;;10.23;26.09;100460.84;5069257;28;19925;-64
2022/03/22 12:29:45;;;;;;;;;;;;;;;10.24;25.45;100460.66;5069447;28;20407;-64
2022/03/22 12:32:14;;;;;;;;;;;;;;;10.25;26.34;100458.81;5070154;28;19967;-65
2022/03/22 12:34:40;;;;;;;;;;;;;;;10.24;26.31;100467.78;5068299;28;19935;-64
2022/03/22 12:37:08;;;;;;;;;;;;;;;10.23;25.96;100458.19;5065954;28;19924;-67
2022/03/22 12:39:34;;;;;;;;;;;;;;;10.25;26.13;100461.47;5069787;28;20435;-64
2022/03/22 12:42:00;;;;;;;;;;;;;;;10.24;26.44;100452.72;5069272;28;19924;-64
2022/03/22 12:44:26;;;;;;;;;;;;;;;10.24;27.30;100455.34;5052953;28;20019;-66
2022/03/22 12:46:53;;;;;;;;;;;;;;;10.22;26.76;100452.09;5068499;28;19935;-67
2022/03/22 12:49:20;;;;;;;;;;;;;;;10.20;26.97;100448.81;5068737;28;19935;-61
2022/03/22 12:51:47;;;;;;;;;;;;;;;10.19;26.37;100452.50;5050128;28;20474;-63
2022/03/22 12:54:16;;;;;;;;;;;;;;;10.19;27.29;100449.84;5076875;28;20495;-62
2022/03/22 12:56:46;;;;;;;;;;;;;;;10.17;26.03;100454.53;5070168;28;19936;-61
2022/03/22 12:59:22;;;;;;;;;;;;;;;10.18;26.57;100455.38;5085176;28;19932;-59
2022/03/22 13:01:56;;;;;;;;;;;;;;;10.15;27.26;100451.31;5066953;28;20416;-62
2022/03/22 13:04:26;;;;;;;;;;;;;;;10.11;25.47;100455.38;5068451;28;19939;-63
2022/03/22 13:06:59;;;;;;;;;;;;;;;10.09;25.68;100444.19;5068540;28;19975;-62
2022/03/22 13:12:10;;;;;;;;;;;;;;;10.06;26.45;100447.25;5068006;28;19925;-61
2022/03/22 13:17:20;;;;;;;;;;;;;;;9.98;26.86;100442.19;5070659;28;19943;-61
2022/03/22 13:19:45;;;;;;;;;;;;;;;9.97;26.84;100443.19;5066480;28;20373;-61
2022/03/22 13:22:18;;;;;;;;;;;;;;;9.96;26.34;100428.31;5068659;28;20023;-61